UTA283 UWWW-USSS
Flight info
| Callsign | UTA283 |
|---|---|
| Flight time | 1h 10m |
| Altitude | 37000 |
| Route | PIRIK2Z PIRIK P135 BUGOT L749 IMANA L992 NEBIS NEBIS6S |
| Aircraft | B738/M-SDE2E3FGHIRWXY/LB1 |
Departure
| Time | 2026-04-30 11:16 |
|---|---|
| Airport | Kurumoch International Airport (UWWW) |
Arrival
| Time | 2026-04-30 12:26 |
|---|---|
| Airport | Koltsovo Airport (USSS) |
| Time | Latitude | Longitude | Altitude | Speed | Heading |
|---|---|---|---|---|---|
| 2026-04-30 10:43 | 53.51023 | 50.15942 | 446 ft | 0 kts | 332° |
| 2026-04-30 11:03 | 53.51024 | 50.15941 | 446 ft | 0 kts | 332° |
| 2026-04-30 11:04 | 53.51052 | 50.15921 | 439 ft | 5 kts | 353° |
| 2026-04-30 11:04 | 53.51086 | 50.15936 | 442 ft | 5 kts | 35° |
| 2026-04-30 11:04 | 53.51103 | 50.15988 | 446 ft | 5 kts | 63° |
| 2026-04-30 11:04 | 53.51119 | 50.16041 | 436 ft | 5 kts | 63° |
| 2026-04-30 11:05 | 53.51136 | 50.16091 | 441 ft | 5 kts | 60° |
| 2026-04-30 11:05 | 53.51153 | 50.16141 | 446 ft | 5 kts | 60° |
| 2026-04-30 11:05 | 53.51169 | 50.16190 | 446 ft | 5 kts | 62° |
| 2026-04-30 11:05 | 53.51184 | 50.16239 | 446 ft | 5 kts | 61° |
| 2026-04-30 11:06 | 53.51200 | 50.16287 | 441 ft | 5 kts | 61° |
| 2026-04-30 11:06 | 53.51215 | 50.16334 | 438 ft | 5 kts | 61° |
| 2026-04-30 11:06 | 53.51230 | 50.16381 | 446 ft | 5 kts | 61° |
| 2026-04-30 11:06 | 53.51255 | 50.16458 | 440 ft | 12 kts | 61° |
| 2026-04-30 11:07 | 53.51298 | 50.16590 | 437 ft | 13 kts | 61° |
| 2026-04-30 11:07 | 53.51320 | 50.16723 | 433 ft | 12 kts | 113° |
| 2026-04-30 11:07 | 53.51247 | 50.16788 | 442 ft | 12 kts | 158° |
| 2026-04-30 11:07 | 53.51169 | 50.16832 | 437 ft | 12 kts | 161° |
| 2026-04-30 11:08 | 53.51096 | 50.16876 | 432 ft | 11 kts | 160° |
| 2026-04-30 11:08 | 53.51023 | 50.16919 | 445 ft | 11 kts | 160° |
| 2026-04-30 11:08 | 53.50952 | 50.16962 | 437 ft | 11 kts | 160° |
| 2026-04-30 11:08 | 53.50882 | 50.17004 | 431 ft | 11 kts | 160° |
| 2026-04-30 11:09 | 53.50814 | 50.17044 | 430 ft | 10 kts | 161° |
| 2026-04-30 11:09 | 53.50749 | 50.17083 | 446 ft | 10 kts | 160° |
| 2026-04-30 11:09 | 53.50685 | 50.17121 | 440 ft | 10 kts | 160° |
| 2026-04-30 11:09 | 53.50623 | 50.17158 | 430 ft | 9 kts | 160° |
| 2026-04-30 11:10 | 53.50562 | 50.17194 | 446 ft | 9 kts | 160° |
| 2026-04-30 11:10 | 53.50503 | 50.17229 | 439 ft | 9 kts | 160° |
| 2026-04-30 11:10 | 53.50438 | 50.17268 | 446 ft | 11 kts | 160° |
| 2026-04-30 11:10 | 53.50360 | 50.17314 | 439 ft | 13 kts | 160° |
| 2026-04-30 11:11 | 53.50271 | 50.17367 | 441 ft | 14 kts | 160° |
| 2026-04-30 11:11 | 53.50171 | 50.17426 | 435 ft | 16 kts | 160° |
| 2026-04-30 11:11 | 53.50066 | 50.17491 | 430 ft | 16 kts | 160° |
| 2026-04-30 11:11 | 53.49965 | 50.17552 | 433 ft | 15 kts | 160° |
| 2026-04-30 11:12 | 53.49868 | 50.17610 | 446 ft | 14 kts | 160° |
| 2026-04-30 11:12 | 53.49775 | 50.17665 | 441 ft | 14 kts | 160° |
| 2026-04-30 11:12 | 53.49686 | 50.17718 | 434 ft | 13 kts | 160° |
| 2026-04-30 11:12 | 53.49599 | 50.17770 | 441 ft | 14 kts | 160° |
| 2026-04-30 11:13 | 53.49505 | 50.17826 | 446 ft | 15 kts | 160° |
| 2026-04-30 11:13 | 53.49405 | 50.17885 | 433 ft | 15 kts | 160° |
| 2026-04-30 11:13 | 53.49311 | 50.17961 | 442 ft | 16 kts | 139° |
| 2026-04-30 11:13 | 53.49278 | 50.18130 | 445 ft | 16 kts | 81° |
| 2026-04-30 11:14 | 53.49327 | 50.18294 | 443 ft | 17 kts | 38° |
| 2026-04-30 11:14 | 53.49403 | 50.18309 | 443 ft | 15 kts | 345° |
| 2026-04-30 11:14 | 53.49431 | 50.18292 | 440 ft | 0 kts | 341° |
| 2026-04-30 11:15 | 53.49543 | 50.18225 | 437 ft | 52 kts | 340° |
| 2026-04-30 11:15 | 53.50131 | 50.17875 | 433 ft | 125 kts | 340° |
| 2026-04-30 11:16 | 53.51127 | 50.17273 | 512 ft | 177 kts | 339° |
| 2026-04-30 11:16 | 53.52342 | 50.16538 | 1183 ft | 190 kts | 339° |
| 2026-04-30 11:16 | 53.53566 | 50.15781 | 2175 ft | 183 kts | 338° |
| 2026-04-30 11:16 | 53.54786 | 50.15042 | 2732 ft | 202 kts | 338° |
| 2026-04-30 11:17 | 53.56194 | 50.14211 | 2929 ft | 224 kts | 339° |
| 2026-04-30 11:17 | 53.57705 | 50.13322 | 3365 ft | 234 kts | 339° |
| 2026-04-30 11:17 | 53.59261 | 50.12398 | 3799 ft | 245 kts | 339° |
| 2026-04-30 11:17 | 53.60969 | 50.11670 | 4233 ft | 260 kts | 351° |
| 2026-04-30 11:18 | 53.62706 | 50.11605 | 4561 ft | 250 kts | 4° |
| 2026-04-30 11:18 | 53.66259 | 50.12249 | 5021 ft | 266 kts | 4° |
| 2026-04-30 11:18 | 53.68109 | 50.12564 | 5690 ft | 267 kts | 4° |
| 2026-04-30 11:19 | 53.69959 | 50.12863 | 6353 ft | 270 kts | 4° |
| 2026-04-30 11:19 | 53.71863 | 50.13162 | 7016 ft | 273 kts | 3° |
| 2026-04-30 11:19 | 53.73739 | 50.13455 | 7634 ft | 276 kts | 3° |
| 2026-04-30 11:19 | 53.75687 | 50.13798 | 8294 ft | 280 kts | 9° |
| 2026-04-30 11:20 | 53.77445 | 50.15137 | 8924 ft | 287 kts | 38° |
| 2026-04-30 11:20 | 53.78678 | 50.17848 | 9129 ft | 292 kts | 69° |
| 2026-04-30 11:20 | 53.78993 | 50.21217 | 9180 ft | 292 kts | 89° |
| 2026-04-30 11:20 | 53.79028 | 50.24628 | 9175 ft | 295 kts | 89° |
| 2026-04-30 11:21 | 53.79062 | 50.28106 | 9618 ft | 298 kts | 89° |
| 2026-04-30 11:21 | 53.79094 | 50.31616 | 10290 ft | 301 kts | 89° |
| 2026-04-30 11:21 | 53.79132 | 50.35251 | 10572 ft | 321 kts | 89° |
| 2026-04-30 11:21 | 53.79179 | 50.39155 | 10751 ft | 342 kts | 89° |
| 2026-04-30 11:22 | 53.79234 | 50.43278 | 11060 ft | 358 kts | 89° |
| 2026-04-30 11:22 | 53.79293 | 50.47537 | 11597 ft | 364 kts | 89° |
| 2026-04-30 11:22 | 53.79352 | 50.51851 | 12199 ft | 370 kts | 89° |
| 2026-04-30 11:22 | 53.79421 | 50.56225 | 12855 ft | 373 kts | 87° |
| 2026-04-30 11:23 | 53.79971 | 50.60512 | 13535 ft | 377 kts | 67° |
| 2026-04-30 11:23 | 53.81056 | 50.64571 | 14185 ft | 381 kts | 65° |
| 2026-04-30 11:23 | 53.83282 | 50.72835 | 15453 ft | 389 kts | 66° |
| 2026-04-30 11:24 | 53.84395 | 50.77045 | 16111 ft | 393 kts | 68° |
| 2026-04-30 11:24 | 53.85508 | 50.81299 | 16716 ft | 398 kts | 68° |
| 2026-04-30 11:24 | 53.86628 | 50.85614 | 17319 ft | 402 kts | 68° |
| 2026-04-30 11:25 | 53.88885 | 50.94370 | 18504 ft | 409 kts | 69° |
| 2026-04-30 11:25 | 53.90026 | 50.98815 | 19102 ft | 412 kts | 69° |
| 2026-04-30 11:25 | 53.92334 | 51.07831 | 20139 ft | 421 kts | 70° |
| 2026-04-30 11:26 | 53.94683 | 51.17041 | 21156 ft | 430 kts | 70° |
| 2026-04-30 11:26 | 53.95872 | 51.21716 | 21645 ft | 434 kts | 70° |
| 2026-04-30 11:26 | 53.97072 | 51.26443 | 22110 ft | 437 kts | 70° |
| 2026-04-30 11:27 | 53.98279 | 51.31209 | 22552 ft | 442 kts | 71° |
| 2026-04-30 11:27 | 53.99498 | 51.36030 | 22997 ft | 445 kts | 71° |
| 2026-04-30 11:27 | 54.00761 | 51.40861 | 23423 ft | 451 kts | 66° |
| 2026-04-30 11:27 | 54.02521 | 51.45358 | 23772 ft | 462 kts | 55° |
| 2026-04-30 11:28 | 54.06613 | 51.53901 | 24575 ft | 469 kts | 53° |
| 2026-04-30 11:28 | 54.08711 | 51.58206 | 24946 ft | 473 kts | 53° |
| 2026-04-30 11:28 | 54.10798 | 51.62557 | 25328 ft | 476 kts | 54° |
| 2026-04-30 11:29 | 54.12881 | 51.66970 | 25712 ft | 479 kts | 55° |
| 2026-04-30 11:29 | 54.14958 | 51.71429 | 26093 ft | 481 kts | 56° |
| 2026-04-30 11:29 | 54.19125 | 51.80462 | 26813 ft | 487 kts | 56° |
| 2026-04-30 11:30 | 54.23329 | 51.89628 | 27484 ft | 493 kts | 57° |
| 2026-04-30 11:30 | 54.25448 | 51.94253 | 27810 ft | 495 kts | 57° |
| 2026-04-30 11:30 | 54.27575 | 51.98904 | 28113 ft | 498 kts | 57° |
| 2026-04-30 11:31 | 54.29719 | 52.03599 | 28384 ft | 501 kts | 57° |
| 2026-04-30 11:31 | 54.31871 | 52.08321 | 28659 ft | 504 kts | 57° |
| 2026-04-30 11:31 | 54.34003 | 52.13008 | 28943 ft | 507 kts | 57° |
| 2026-04-30 11:31 | 54.35469 | 52.16234 | 29136 ft | 509 kts | 57° |
| 2026-04-30 11:33 | 54.47182 | 52.42193 | 30448 ft | 522 kts | 58° |
| 2026-04-30 11:33 | 54.49399 | 52.47145 | 30730 ft | 523 kts | 58° |
| 2026-04-30 11:33 | 54.51620 | 52.52113 | 31005 ft | 525 kts | 58° |
| 2026-04-30 11:33 | 54.53844 | 52.57097 | 31256 ft | 525 kts | 58° |
| 2026-04-30 11:34 | 54.56064 | 52.62086 | 31531 ft | 525 kts | 58° |
| 2026-04-30 11:34 | 54.58289 | 52.67093 | 31848 ft | 525 kts | 58° |
| 2026-04-30 11:34 | 54.60503 | 52.72079 | 32174 ft | 524 kts | 58° |
| 2026-04-30 11:34 | 54.62560 | 52.77222 | 32388 ft | 519 kts | 66° |
| 2026-04-30 11:35 | 54.64166 | 52.82751 | 32599 ft | 511 kts | 75° |
| 2026-04-30 11:35 | 54.65306 | 52.88504 | 32881 ft | 501 kts | 84° |
| 2026-04-30 11:35 | 54.66113 | 52.94340 | 33319 ft | 496 kts | 86° |
| 2026-04-30 11:35 | 54.66851 | 53.00143 | 33649 ft | 495 kts | 86° |
| 2026-04-30 11:36 | 54.67585 | 53.05964 | 33789 ft | 498 kts | 86° |
| 2026-04-30 11:36 | 54.68338 | 53.11823 | 33973 ft | 500 kts | 86° |
| 2026-04-30 11:36 | 54.69109 | 53.17680 | 34272 ft | 499 kts | 85° |
| 2026-04-30 11:36 | 54.69890 | 53.23509 | 34607 ft | 497 kts | 85° |
| 2026-04-30 11:37 | 54.70671 | 53.29320 | 34845 ft | 497 kts | 85° |
| 2026-04-30 11:37 | 54.71451 | 53.35152 | 35034 ft | 498 kts | 85° |
| 2026-04-30 11:37 | 54.72227 | 53.40982 | 35281 ft | 497 kts | 84° |
| 2026-04-30 11:37 | 54.72997 | 53.46809 | 35499 ft | 497 kts | 84° |
| 2026-04-30 11:38 | 54.73768 | 53.52630 | 35752 ft | 496 kts | 84° |
| 2026-04-30 11:38 | 54.74541 | 53.58447 | 35984 ft | 496 kts | 84° |
| 2026-04-30 11:38 | 54.75314 | 53.64270 | 36167 ft | 497 kts | 84° |
| 2026-04-30 11:38 | 54.76085 | 53.70115 | 36341 ft | 497 kts | 84° |
| 2026-04-30 11:39 | 54.76853 | 53.75946 | 36557 ft | 496 kts | 84° |
| 2026-04-30 11:39 | 54.77615 | 53.81770 | 36789 ft | 496 kts | 84° |
| 2026-04-30 11:39 | 54.78372 | 53.87574 | 37132 ft | 492 kts | 83° |
| 2026-04-30 11:39 | 54.79125 | 53.93363 | 37128 ft | 494 kts | 83° |
| 2026-04-30 11:40 | 54.80613 | 54.04878 | 37140 ft | 491 kts | 83° |
| 2026-04-30 11:40 | 54.82081 | 54.16367 | 37139 ft | 486 kts | 84° |
| 2026-04-30 11:41 | 54.83520 | 54.27820 | 37139 ft | 485 kts | 84° |
| 2026-04-30 11:41 | 54.84925 | 54.39254 | 37144 ft | 485 kts | 84° |
| 2026-04-30 11:42 | 54.86330 | 54.50703 | 37138 ft | 485 kts | 84° |
| 2026-04-30 11:42 | 54.87726 | 54.62154 | 37134 ft | 485 kts | 84° |
| 2026-04-30 11:43 | 54.89117 | 54.73643 | 37144 ft | 487 kts | 84° |
| 2026-04-30 11:43 | 54.90491 | 54.85157 | 37139 ft | 487 kts | 84° |
| 2026-04-30 11:44 | 54.91862 | 54.96709 | 37143 ft | 489 kts | 84° |
| 2026-04-30 11:44 | 54.93225 | 55.08324 | 37141 ft | 491 kts | 85° |
| 2026-04-30 11:45 | 54.94591 | 55.19991 | 37130 ft | 493 kts | 85° |
| 2026-04-30 11:45 | 54.95953 | 55.31703 | 37134 ft | 494 kts | 85° |
| 2026-04-30 11:46 | 54.97306 | 55.43434 | 37125 ft | 494 kts | 85° |
| 2026-04-30 11:46 | 54.98644 | 55.55151 | 37129 ft | 493 kts | 85° |
| 2026-04-30 11:47 | 54.99959 | 55.66768 | 37125 ft | 492 kts | 85° |
| 2026-04-30 11:47 | 55.01270 | 55.78464 | 37128 ft | 492 kts | 85° |
| 2026-04-30 11:48 | 55.02573 | 55.90151 | 37130 ft | 491 kts | 85° |
| 2026-04-30 11:48 | 55.03866 | 56.01843 | 37127 ft | 491 kts | 85° |
| 2026-04-30 11:49 | 55.05150 | 56.13532 | 37125 ft | 491 kts | 85° |
| 2026-04-30 11:49 | 55.06420 | 56.25218 | 37132 ft | 490 kts | 85° |
| 2026-04-30 11:50 | 55.07673 | 56.36912 | 37130 ft | 490 kts | 85° |
| 2026-04-30 11:50 | 55.08923 | 56.48620 | 37129 ft | 491 kts | 86° |
| 2026-04-30 11:51 | 55.10161 | 56.60335 | 37130 ft | 491 kts | 86° |
| 2026-04-30 11:51 | 55.11378 | 56.72089 | 37132 ft | 493 kts | 85° |
| 2026-04-30 11:52 | 55.12604 | 56.83891 | 37138 ft | 494 kts | 86° |
| 2026-04-30 11:52 | 55.13819 | 56.95703 | 37128 ft | 494 kts | 86° |
| 2026-04-30 11:53 | 55.15021 | 57.07529 | 37129 ft | 496 kts | 86° |
| 2026-04-30 11:53 | 55.16234 | 57.19393 | 37113 ft | 493 kts | 86° |
| 2026-04-30 11:54 | 55.17387 | 57.31132 | 37112 ft | 486 kts | 86° |
| 2026-04-30 11:54 | 55.18537 | 57.42801 | 37125 ft | 488 kts | 86° |
| 2026-04-30 11:55 | 55.19668 | 57.54495 | 37122 ft | 488 kts | 86° |
| 2026-04-30 11:55 | 55.20781 | 57.66122 | 37126 ft | 488 kts | 87° |
| 2026-04-30 11:56 | 55.21874 | 57.77585 | 37138 ft | 490 kts | 87° |
| 2026-04-30 11:56 | 55.23003 | 57.89381 | 37132 ft | 492 kts | 87° |
| 2026-04-30 11:57 | 55.24104 | 58.01088 | 37142 ft | 493 kts | 87° |
| 2026-04-30 11:57 | 55.25185 | 58.12813 | 37132 ft | 496 kts | 87° |
| 2026-04-30 11:58 | 55.26277 | 58.24787 | 37120 ft | 499 kts | 87° |
| 2026-04-30 11:58 | 55.27388 | 58.36759 | 36935 ft | 501 kts | 86° |
| 2026-04-30 11:59 | 55.27943 | 58.42833 | 36420 ft | 505 kts | 88° |
| 2026-04-30 11:59 | 55.28438 | 58.48589 | 35865 ft | 500 kts | 88° |
| 2026-04-30 11:59 | 55.28978 | 58.54712 | 35236 ft | 497 kts | 89° |
| 2026-04-30 11:59 | 55.29513 | 58.60705 | 34632 ft | 498 kts | 90° |
| 2026-04-30 12:00 | 55.29867 | 58.64694 | 34212 ft | 499 kts | 90° |
| 2026-04-30 12:00 | 55.30394 | 58.70676 | 33555 ft | 501 kts | 90° |
| 2026-04-30 12:00 | 55.31053 | 58.76699 | 33033 ft | 508 kts | 82° |
| 2026-04-30 12:00 | 55.32287 | 58.82542 | 32485 ft | 518 kts | 70° |
| 2026-04-30 12:01 | 55.34026 | 58.88111 | 31976 ft | 521 kts | 62° |
| 2026-04-30 12:01 | 55.36146 | 58.93258 | 31563 ft | 521 kts | 51° |
| 2026-04-30 12:01 | 55.38607 | 58.97921 | 31181 ft | 517 kts | 48° |
| 2026-04-30 12:01 | 55.41102 | 59.02458 | 30748 ft | 514 kts | 47° |
| 2026-04-30 12:02 | 55.43584 | 59.06944 | 30306 ft | 510 kts | 47° |
| 2026-04-30 12:02 | 55.45922 | 59.11203 | 29886 ft | 507 kts | 47° |
| 2026-04-30 12:02 | 55.48321 | 59.15622 | 29457 ft | 503 kts | 48° |
| 2026-04-30 12:02 | 55.50718 | 59.20079 | 29029 ft | 499 kts | 48° |
| 2026-04-30 12:03 | 55.53085 | 59.24511 | 28623 ft | 495 kts | 48° |
| 2026-04-30 12:03 | 55.57758 | 59.33310 | 27730 ft | 488 kts | 48° |
| 2026-04-30 12:03 | 55.60066 | 59.37671 | 27281 ft | 485 kts | 48° |
| 2026-04-30 12:04 | 55.62359 | 59.42010 | 26874 ft | 480 kts | 48° |
| 2026-04-30 12:04 | 55.64630 | 59.46314 | 26460 ft | 476 kts | 48° |
| 2026-04-30 12:04 | 55.66882 | 59.50589 | 26038 ft | 473 kts | 48° |
| 2026-04-30 12:04 | 55.69116 | 59.54834 | 25609 ft | 470 kts | 48° |
| 2026-04-30 12:05 | 55.71333 | 59.59056 | 25173 ft | 466 kts | 47° |
| 2026-04-30 12:05 | 55.73538 | 59.63261 | 24734 ft | 463 kts | 48° |
| 2026-04-30 12:05 | 55.75719 | 59.67424 | 24280 ft | 456 kts | 48° |
| 2026-04-30 12:05 | 55.77773 | 59.71357 | 23679 ft | 451 kts | 47° |
| 2026-04-30 12:06 | 55.79897 | 59.75432 | 22978 ft | 448 kts | 48° |
| 2026-04-30 12:06 | 55.81997 | 59.79468 | 22368 ft | 442 kts | 47° |
| 2026-04-30 12:06 | 55.84059 | 59.83436 | 21771 ft | 436 kts | 47° |
| 2026-04-30 12:06 | 55.86102 | 59.87372 | 21167 ft | 431 kts | 47° |
| 2026-04-30 12:07 | 55.88116 | 59.91259 | 20605 ft | 424 kts | 47° |
| 2026-04-30 12:07 | 55.90103 | 59.95101 | 20000 ft | 419 kts | 47° |
| 2026-04-30 12:07 | 55.92220 | 59.98619 | 19320 ft | 413 kts | 31° |
| 2026-04-30 12:07 | 55.94732 | 60.00775 | 18794 ft | 401 kts | 19° |
| 2026-04-30 12:08 | 55.97318 | 60.02714 | 18213 ft | 396 kts | 21° |
| 2026-04-30 12:08 | 55.99849 | 60.04659 | 17488 ft | 397 kts | 22° |
| 2026-04-30 12:08 | 56.02366 | 60.06626 | 16916 ft | 392 kts | 23° |
| 2026-04-30 12:08 | 56.04803 | 60.08544 | 16415 ft | 384 kts | 23° |
| 2026-04-30 12:09 | 56.07259 | 60.10491 | 15832 ft | 378 kts | 23° |
| 2026-04-30 12:09 | 56.09619 | 60.12368 | 15223 ft | 373 kts | 23° |
| 2026-04-30 12:09 | 56.11982 | 60.14243 | 14684 ft | 369 kts | 22° |
| 2026-04-30 12:09 | 56.14309 | 60.16104 | 14169 ft | 363 kts | 22° |
| 2026-04-30 12:10 | 56.16589 | 60.17923 | 13713 ft | 355 kts | 22° |
| 2026-04-30 12:10 | 56.18816 | 60.19701 | 13331 ft | 345 kts | 22° |
| 2026-04-30 12:10 | 56.20981 | 60.21431 | 12973 ft | 336 kts | 22° |
| 2026-04-30 12:10 | 56.23091 | 60.23120 | 12614 ft | 328 kts | 22° |
| 2026-04-30 12:11 | 56.25164 | 60.24783 | 12144 ft | 326 kts | 22° |
| 2026-04-30 12:11 | 56.27181 | 60.26494 | 11916 ft | 317 kts | 31° |
| 2026-04-30 12:11 | 56.28676 | 60.29331 | 11554 ft | 314 kts | 65° |
| 2026-04-30 12:11 | 56.29260 | 60.33055 | 11263 ft | 309 kts | 83° |
| 2026-04-30 12:12 | 56.29629 | 60.36933 | 10918 ft | 323 kts | 82° |
| 2026-04-30 12:12 | 56.30030 | 60.40953 | 10654 ft | 324 kts | 81° |
| 2026-04-30 12:12 | 56.30429 | 60.44855 | 10487 ft | 309 kts | 81° |
| 2026-04-30 12:12 | 56.30815 | 60.48565 | 10344 ft | 294 kts | 81° |
| 2026-04-30 12:13 | 56.31182 | 60.52095 | 10198 ft | 280 kts | 81° |
| 2026-04-30 12:13 | 56.31535 | 60.55415 | 10031 ft | 265 kts | 81° |
| 2026-04-30 12:13 | 56.31876 | 60.58637 | 9826 ft | 260 kts | 81° |
| 2026-04-30 12:13 | 56.32185 | 60.61857 | 9573 ft | 263 kts | 81° |
| 2026-04-30 12:14 | 56.32525 | 60.65163 | 9338 ft | 274 kts | 80° |
| 2026-04-30 12:14 | 56.32883 | 60.68574 | 9056 ft | 277 kts | 80° |
| 2026-04-30 12:14 | 56.33234 | 60.71929 | 8757 ft | 270 kts | 80° |
| 2026-04-30 12:14 | 56.33576 | 60.75206 | 8480 ft | 262 kts | 80° |
| 2026-04-30 12:15 | 56.33906 | 60.78396 | 8213 ft | 256 kts | 80° |
| 2026-04-30 12:15 | 56.34229 | 60.81511 | 7956 ft | 250 kts | 81° |
| 2026-04-30 12:15 | 56.34534 | 60.84583 | 7717 ft | 250 kts | 81° |
| 2026-04-30 12:15 | 56.34853 | 60.87674 | 7512 ft | 251 kts | 80° |
| 2026-04-30 12:16 | 56.35176 | 60.90815 | 7438 ft | 258 kts | 80° |
| 2026-04-30 12:16 | 56.35281 | 60.91850 | 7397 ft | 258 kts | 80° |
| 2026-04-30 12:18 | 56.44760 | 61.05522 | 6176 ft | 245 kts | 24° |
| 2026-04-30 12:18 | 56.47927 | 61.08112 | 5818 ft | 242 kts | 25° |
| 2026-04-30 12:18 | 56.49462 | 61.09376 | 5640 ft | 243 kts | 25° |
| 2026-04-30 12:19 | 56.51013 | 61.10659 | 5485 ft | 247 kts | 25° |
| 2026-04-30 12:19 | 56.52573 | 61.11946 | 5296 ft | 245 kts | 23° |
| 2026-04-30 12:19 | 56.54216 | 61.12572 | 5100 ft | 240 kts | 359° |
| 2026-04-30 12:19 | 56.55869 | 61.12521 | 4942 ft | 236 kts | 359° |
| 2026-04-30 12:20 | 56.57516 | 61.12501 | 4785 ft | 237 kts | 360° |
| 2026-04-30 12:20 | 56.59177 | 61.12494 | 4504 ft | 244 kts | 360° |
| 2026-04-30 12:20 | 56.60840 | 61.12496 | 4309 ft | 240 kts | 0° |
| 2026-04-30 12:20 | 56.62501 | 61.12505 | 4118 ft | 237 kts | 0° |
| 2026-04-30 12:21 | 56.64135 | 61.12514 | 3946 ft | 233 kts | 359° |
| 2026-04-30 12:21 | 56.65738 | 61.12164 | 3776 ft | 231 kts | 347° |
| 2026-04-30 12:21 | 56.67315 | 61.11553 | 3621 ft | 233 kts | 348° |
| 2026-04-30 12:21 | 56.68911 | 61.10982 | 3459 ft | 233 kts | 349° |
| 2026-04-30 12:22 | 56.70488 | 61.10424 | 3279 ft | 229 kts | 349° |
| 2026-04-30 12:22 | 56.72012 | 61.09723 | 3100 ft | 224 kts | 332° |
| 2026-04-30 12:22 | 56.73037 | 61.07779 | 2962 ft | 207 kts | 288° |
| 2026-04-30 12:22 | 56.73171 | 61.05329 | 2867 ft | 187 kts | 268° |
| 2026-04-30 12:23 | 56.73240 | 61.03055 | 2715 ft | 173 kts | 274° |
| 2026-04-30 12:23 | 56.73342 | 61.00865 | 2608 ft | 170 kts | 273° |
| 2026-04-30 12:23 | 56.73421 | 60.98839 | 2506 ft | 155 kts | 273° |
| 2026-04-30 12:23 | 56.73494 | 60.96888 | 2304 ft | 155 kts | 273° |
| 2026-04-30 12:24 | 56.73567 | 60.94939 | 2085 ft | 154 kts | 272° |
| 2026-04-30 12:24 | 56.73641 | 60.93010 | 1879 ft | 153 kts | 272° |
| 2026-04-30 12:24 | 56.73717 | 60.91057 | 1679 ft | 154 kts | 272° |
| 2026-04-30 12:24 | 56.73799 | 60.89117 | 1499 ft | 154 kts | 272° |
| 2026-04-30 12:25 | 56.73867 | 60.87162 | 1250 ft | 157 kts | 272° |
| 2026-04-30 12:25 | 56.73952 | 60.85200 | 1047 ft | 154 kts | 271° |
| 2026-04-30 12:25 | 56.74019 | 60.83315 | 856 ft | 147 kts | 272° |
| 2026-04-30 12:25 | 56.74083 | 60.81554 | 774 ft | 127 kts | 274° |
| 2026-04-30 12:26 | 56.74137 | 60.80342 | 774 ft | 65 kts | 274° |
| 2026-04-30 12:26 | 56.74154 | 60.79904 | 773 ft | 15 kts | 274° |
| 2026-04-30 12:26 | 56.74161 | 60.79724 | 773 ft | 14 kts | 274° |
| 2026-04-30 12:26 | 56.74167 | 60.79551 | 773 ft | 13 kts | 274° |
| 2026-04-30 12:27 | 56.74173 | 60.79388 | 773 ft | 13 kts | 275° |
| 2026-04-30 12:27 | 56.74181 | 60.79224 | 773 ft | 13 kts | 275° |
| 2026-04-30 12:27 | 56.74221 | 60.79096 | 773 ft | 13 kts | 349° |
| 2026-04-30 12:27 | 56.74309 | 60.79119 | 773 ft | 13 kts | 9° |
| 2026-04-30 12:28 | 56.74394 | 60.79145 | 773 ft | 12 kts | 9° |
| 2026-04-30 12:28 | 56.74476 | 60.79179 | 773 ft | 12 kts | 13° |
| 2026-04-30 12:28 | 56.74559 | 60.79188 | 773 ft | 12 kts | 359° |
| 2026-04-30 12:28 | 56.74639 | 60.79188 | 773 ft | 11 kts | 0° |
| 2026-04-30 12:29 | 56.74716 | 60.79188 | 773 ft | 11 kts | 0° |
| 2026-04-30 12:29 | 56.74791 | 60.79188 | 773 ft | 11 kts | 0° |
| 2026-04-30 12:29 | 56.74829 | 60.79191 | 773 ft | 3 kts | 9° |
| 2026-04-30 12:29 | 56.74847 | 60.79206 | 773 ft | 3 kts | 35° |
| 2026-04-30 12:30 | 56.74856 | 60.79237 | 773 ft | 3 kts | 81° |
| 2026-04-30 12:30 | 56.74857 | 60.79287 | 773 ft | 5 kts | 88° |
| 2026-04-30 12:30 | 56.74857 | 60.79348 | 773 ft | 5 kts | 89° |
| 2026-04-30 12:30 | 56.74857 | 60.79409 | 773 ft | 5 kts | 92° |
| 2026-04-30 12:31 | 56.74856 | 60.79449 | 773 ft | 5 kts | 90° |
| 2026-04-30 12:31 | 56.74857 | 60.79509 | 773 ft | 5 kts | 90° |
| 2026-04-30 12:31 | 56.74857 | 60.79567 | 773 ft | 5 kts | 90° |
| 2026-04-30 12:31 | 56.74856 | 60.79643 | 773 ft | 4 kts | 94° |
| 2026-04-30 12:32 | 56.74854 | 60.79680 | 773 ft | 4 kts | 92° |
| 2026-04-30 12:32 | 56.74854 | 60.79736 | 773 ft | 4 kts | 90° |
| 2026-04-30 12:32 | 56.74854 | 60.79800 | 773 ft | 6 kts | 90° |
| 2026-04-30 12:32 | 56.74853 | 60.79882 | 773 ft | 6 kts | 90° |
| 2026-04-30 12:33 | 56.74853 | 60.79936 | 773 ft | 6 kts | 90° |
| 2026-04-30 12:33 | 56.74853 | 60.79957 | 773 ft | 6 kts | 90° |
| 2026-04-30 12:33 | 56.74853 | 60.80023 | 773 ft | 6 kts | 89° |
| 2026-04-30 12:33 | 56.74854 | 60.80099 | 773 ft | 6 kts | 89° |
| 2026-04-30 12:34 | 56.74853 | 60.80173 | 774 ft | 6 kts | 94° |
| 2026-04-30 12:34 | 56.74837 | 60.80239 | 774 ft | 6 kts | 136° |
| 2026-04-30 12:34 | 56.74798 | 60.80251 | 774 ft | 6 kts | 180° |
| 2026-04-30 12:34 | 56.74775 | 60.80251 | 774 ft | 0 kts | 181° |
| 2026-04-30 12:35 | 56.74769 | 60.80250 | 774 ft | 3 kts | 184° |
| 2026-04-30 12:35 | 56.74744 | 60.80208 | 774 ft | 7 kts | 255° |
| 2026-04-30 12:35 | 56.74734 | 60.80084 | 773 ft | 10 kts | 272° |
| 2026-04-30 12:36 | 56.74777 | 60.80006 | 773 ft | 6 kts | 359° |
| 2026-04-30 12:36 | 56.74786 | 60.80005 | 773 ft | 0 kts | 359° |